Time;durP1;ratioP1;P1;durP2;ratioP2;P2;SDS_P1;SDS_P2;PMS_P1;PMS_P2;Temp;Humidity;BMP_temperature;BMP_pressure;BME280_temperature;BME280_humidity;BME280_pressure;Samples;Min_cycle;Max_cycle;Signal;HPM_P1;HPM_P2
2021/06/06 00:00:26;;;;;;;9.13;5.60;;;;;;;12.77;84.31;97198.19;4945056;28;20138;-62
2021/06/06 00:02:53;;;;;;;6.72;5.25;;;;;;;12.66;84.36;97175.81;4954357;28;20069;-61
2021/06/06 00:05:20;;;;;;;6.80;5.50;;;;;;;12.79;84.35;97196.63;4966124;28;20031;-61
2021/06/06 00:07:45;;;;;;;8.73;5.95;;;;;;;12.75;85.19;97193.03;4964788;28;20045;-61
2021/06/06 00:10:11;;;;;;;10.10;5.68;;;;;;;12.23;85.42;97143.97;4965969;28;20035;-62
2021/06/06 00:12:38;;;;;;;5.93;5.07;;;;;;;12.80;84.58;97192.69;4966258;28;20039;-61
2021/06/06 00:15:16;;;;;;;6.22;5.55;;;;;;;12.73;85.45;97184.25;4964216;28;20061;-61
2021/06/06 00:17:42;;;;;;;8.25;5.35;;;;;;;12.41;84.44;97132.28;4964369;28;20114;-61
2021/06/06 00:20:10;;;;;;;8.80;5.72;;;;;;;12.57;84.40;97164.22;4965442;28;20442;-61
2021/06/06 00:22:37;;;;;;;5.93;5.20;;;;;;;12.73;83.85;97202.91;4966206;28;20039;-61
2021/06/06 00:25:06;;;;;;;9.13;5.93;;;;;;;12.55;84.56;97158.22;4964343;28;20426;-62
2021/06/06 00:27:32;;;;;;;7.35;6.03;;;;;;;12.63;84.59;97190.47;4964394;28;20035;-61
2021/06/06 00:29:58;;;;;;;8.35;5.70;;;;;;;12.13;84.30;97143.84;4962060;28;20430;-62
2021/06/06 00:32:23;;;;;;;6.53;5.80;;;;;;;11.45;85.49;97010.13;4965762;28;20050;-62
2021/06/06 00:34:49;;;;;;;6.88;5.45;;;;;;;12.50;86.02;97174.47;4965985;28;20119;-61
2021/06/06 00:37:14;;;;;;;10.25;7.70;;;;;;;12.48;86.79;97177.63;4966110;28;20079;-62
2021/06/06 00:39:40;;;;;;;5.97;5.32;;;;;;;11.76;86.01;97118.00;4965787;28;20498;-62
2021/06/06 00:42:06;;;;;;;7.57;5.30;;;;;;;12.51;86.05;97182.41;4964055;28;20081;-64
2021/06/06 00:44:32;;;;;;;6.55;5.85;;;;;;;12.25;86.28;97124.16;4964073;28;20504;-62
2021/06/06 00:46:57;;;;;;;7.90;6.05;;;;;;;12.60;85.57;97171.78;4965508;28;20118;-61
2021/06/06 00:49:23;;;;;;;10.75;5.80;;;;;;;12.69;85.14;97172.31;4965775;28;20497;-61
2021/06/06 00:51:53;;;;;;;6.50;5.13;;;;;;;12.71;84.56;97169.94;4965762;28;20038;-62
2021/06/06 00:54:21;;;;;;;6.30;5.50;;;;;;;12.74;84.19;97169.16;4966008;28;20030;-62
2021/06/06 00:56:50;;;;;;;6.28;5.35;;;;;;;12.29;84.51;97118.66;4965271;28;20038;-62
2021/06/06 00:59:18;;;;;;;6.85;6.22;;;;;;;12.51;85.59;97160.19;4965494;28;20047;-62
2021/06/06 01:01:44;;;;;;;10.13;6.60;;;;;;;12.20;85.87;97110.63;4964748;28;20049;-62
2021/06/06 01:04:11;;;;;;;11.20;6.10;;;;;;;12.61;84.00;97165.06;4965565;28;20046;-61
2021/06/06 01:06:41;;;;;;;9.43;5.70;;;;;;;12.59;83.93;97167.44;4965159;28;20490;-61
2021/06/06 01:09:08;;;;;;;7.25;5.63;;;;;;;12.32;85.75;97134.56;4965536;28;20494;-61
2021/06/06 01:11:53;;;;;;;8.27;5.75;;;;;;;12.01;86.47;97108.81;4965384;28;20409;-62
2021/06/06 01:14:25;;;;;;;7.40;5.15;;;;;;;12.03;85.54;97111.19;4965125;28;20478;-62
2021/06/06 01:17:15;;;;;;;7.80;5.38;;;;;;;11.56;86.57;97036.03;4965611;28;20466;-69
2021/06/06 01:19:41;;;;;;;7.68;5.55;;;;;;;12.32;86.21;97152.03;4964861;28;20057;-69
2021/06/06 01:22:27;;;;;;;7.70;5.30;;;;;;;12.22;87.20;97151.91;4963171;28;20145;-69
2021/06/06 01:24:59;;;;;;;9.27;6.22;;;;;;;12.23;87.20;97148.75;4965612;28;20035;-68
2021/06/06 01:27:30;;;;;;;7.95;5.57;;;;;;;12.19;87.31;97147.91;4964306;28;20043;-68
2021/06/06 01:30:11;;;;;;;6.35;5.57;;;;;;;12.29;87.14;97144.44;4963987;28;20038;-68
2021/06/06 01:32:40;;;;;;;6.32;5.20;;;;;;;12.12;87.95;97147.81;4963373;28;20481;-68
2021/06/06 01:35:11;;;;;;;8.90;6.07;;;;;;;12.02;87.50;97120.72;4964428;28;20422;-69
2021/06/06 01:37:44;;;;;;;6.20;5.53;;;;;;;12.16;87.27;97138.34;4963423;28;20473;-69
2021/06/06 01:40:12;;;;;;;7.23;5.53;;;;;;;12.20;86.92;97132.84;4962622;28;20126;-69
2021/06/06 01:42:41;;;;;;;7.63;5.20;;;;;;;12.06;87.35;97121.56;4963288;28;20661;-68
2021/06/06 01:45:15;;;;;;;6.85;5.43;;;;;;;12.23;87.17;97134.88;4964778;28;20524;-69
2021/06/06 01:47:43;;;;;;;7.18;5.32;;;;;;;12.24;86.85;97128.13;4963701;28;20082;-68
2021/06/06 01:50:32;;;;;;;7.50;5.82;;;;;;;12.30;85.61;97182.16;4964042;28;20027;-69
2021/06/06 01:53:00;;;;;;;7.22;6.28;;;;;;;12.24;85.92;97125.34;4964561;28;20038;-67
2021/06/06 01:55:30;;;;;;;8.02;6.32;;;;;;;11.92;86.55;97088.06;4962906;28;20035;-69
2021/06/06 01:58:01;;;;;;;9.85;6.00;;;;;;;12.31;86.02;97128.22;4963148;28;20082;-68
2021/06/06 02:00:38;;;;;;;6.53;5.93;;;;;;;12.28;86.25;97117.06;4962675;28;20438;-68
2021/06/06 02:03:05;;;;;;;7.53;5.82;;;;;;;11.82;86.48;97045.13;4965128;28;20042;-69
2021/06/06 02:05:30;;;;;;;10.07;6.00;;;;;;;12.24;85.72;97122.56;4964164;28;20043;-68
2021/06/06 02:07:57;;;;;;;8.85;5.60;;;;;;;11.95;86.03;97076.19;4965075;28;20038;-68
2021/06/06 02:10:44;;;;;;;8.63;5.55;;;;;;;12.41;84.74;97116.41;4964092;28;20517;-68
2021/06/06 02:13:18;;;;;;;6.75;6.07;;;;;;;12.28;85.45;97123.44;4964614;28;20123;-68
2021/06/06 02:15:45;;;;;;;6.57;5.47;;;;;;;12.14;86.28;97112.13;4964119;28;20038;-69
2021/06/06 02:18:11;;;;;;;14.27;5.63;;;;;;;11.99;87.25;97115.91;4964757;28;20038;-68
2021/06/06 02:20:40;;;;;;;8.00;6.07;;;;;;;12.00;87.78;97115.53;4962614;28;20549;-67
2021/06/06 02:23:07;;;;;;;7.93;5.47;;;;;;;12.11;86.82;97126.75;4963266;28;20058;-67
2021/06/06 02:25:33;;;;;;;6.32;5.50;;;;;;;12.12;85.73;97108.94;4962287;28;20051;-67
2021/06/06 02:28:16;;;;;;;6.50;5.47;;;;;;;11.94;87.26;97107.91;4964583;28;20042;-69
2021/06/06 02:30:57;;;;;;;8.15;5.28;;;;;;;11.56;87.46;97047.94;4962239;28;20058;-68
2021/06/06 02:33:26;;;;;;;7.38;5.72;;;;;;;11.93;87.51;97109.09;4962799;28;20038;-68
2021/06/06 02:35:57;;;;;;;9.88;5.95;;;;;;;11.90;87.01;97109.88;4964078;28;20509;-69
2021/06/06 02:38:42;;;;;;;8.27;5.53;;;;;;;11.50;86.73;97081.94;4965430;28;20030;-70
2021/06/06 02:41:15;;;;;;;8.90;6.45;;;;;;;11.82;87.41;97122.03;4967795;28;20038;-66
2021/06/06 02:43:47;;;;;;;6.38;5.80;;;;;;;11.82;88.28;97119.28;4967971;28;20034;-68
2021/06/06 02:46:16;;;;;;;7.68;5.85;;;;;;;11.86;87.52;97114.56;4965806;28;20436;-67
2021/06/06 02:48:47;;;;;;;8.18;5.70;;;;;;;11.73;88.11;97108.44;4966444;28;20570;-68
2021/06/06 02:51:17;;;;;;;6.50;5.72;;;;;;;11.84;88.36;97125.22;4967109;28;20045;-69
2021/06/06 02:53:57;;;;;;;6.68;5.78;;;;;;;9.27;89.30;96748.50;4967809;28;20031;-68
2021/06/06 02:56:26;;;;;;;6.45;5.72;;;;;;;11.47;89.76;97177.81;4966332;28;20121;-69
2021/06/06 02:59:10;;;;;;;7.30;5.68;;;;;;;11.44;88.27;97077.88;4965933;28;20118;-68
2021/06/06 03:01:44;;;;;;;10.10;5.82;;;;;;;11.86;88.28;97111.78;4966983;28;20046;-69
2021/06/06 03:04:14;;;;;;;8.20;6.40;;;;;;;11.99;87.59;97107.59;4967176;28;20034;-68
2021/06/06 03:06:44;;;;;;;9.40;6.43;;;;;;;11.80;86.82;97060.56;4967167;28;20187;-68
2021/06/06 03:09:12;;;;;;;6.60;5.32;;;;;;;12.10;86.78;97111.28;4967571;28;20320;-68
2021/06/06 03:11:41;;;;;;;10.18;5.72;;;;;;;12.15;86.63;97108.97;4967054;28;20041;-69
2021/06/06 03:14:11;;;;;;;5.90;4.97;;;;;;;12.17;87.06;97100.28;4967657;28;20520;-69
2021/06/06 03:16:43;;;;;;;6.55;5.63;;;;;;;12.31;85.98;97100.44;4965653;28;20518;-67
2021/06/06 03:19:10;;;;;;;9.13;5.38;;;;;;;12.29;85.40;97108.34;4967457;28;20193;-68
2021/06/06 03:21:43;;;;;;;7.85;5.43;;;;;;;12.18;84.95;97068.53;4966975;28;20035;-69
2021/06/06 03:24:22;;;;;;;8.63;5.32;;;;;;;12.43;84.38;97102.94;4968017;28;20031;-69
2021/06/06 03:26:50;;;;;;;7.03;5.53;;;;;;;12.48;84.08;97101.78;4966802;28;20118;-68
2021/06/06 03:29:21;;;;;;;11.30;6.43;;;;;;;12.23;83.91;97064.63;4965504;28;20030;-69
2021/06/06 03:31:53;;;;;;;9.02;6.07;;;;;;;12.54;83.26;97103.84;4967036;28;20047;-69
2021/06/06 03:34:18;;;;;;;10.65;5.65;;;;;;;12.60;83.03;97102.31;4965720;28;20045;-69
2021/06/06 03:36:45;;;;;;;11.32;7.57;;;;;;;12.76;82.12;97105.66;4964822;28;20521;-69
2021/06/06 03:39:17;;;;;;;8.82;6.90;;;;;;;12.81;82.37;97108.09;4966672;28;20088;-69
2021/06/06 03:41:44;;;;;;;8.50;7.25;;;;;;;12.46;82.26;97056.91;4964813;28;20062;-68
2021/06/06 03:44:10;;;;;;;8.82;6.53;;;;;;;12.35;83.12;97019.91;4965154;28;20085;-68
2021/06/06 03:46:37;;;;;;;9.43;6.90;;;;;;;11.80;82.66;96919.84;4966192;28;20034;-68
2021/06/06 03:49:07;;;;;;;10.55;6.72;;;;;;;12.97;82.24;97093.94;4964500;28;20027;-69
2021/06/06 03:51:34;;;;;;;9.15;7.18;;;;;;;12.99;82.45;97091.56;4966501;28;20047;-68
2021/06/06 03:54:00;;;;;;;11.63;7.63;;;;;;;12.57;82.22;97014.16;4966684;28;20030;-68
2021/06/06 03:56:26;;;;;;;9.05;6.68;;;;;;;12.76;82.08;97038.94;4966261;28;20046;-69
2021/06/06 03:58:51;;;;;;;8.30;6.22;;;;;;;12.90;82.04;97038.28;4964968;28;20030;-69
2021/06/06 04:01:17;;;;;;;8.32;5.72;;;;;;;13.29;81.56;97079.09;4964497;28;20497;-69
2021/06/06 04:03:43;;;;;;;10.52;6.25;;;;;;;12.84;80.12;96979.44;4964888;28;20034;-69
2021/06/06 04:06:08;;;;;;;10.18;7.43;;;;;;;13.20;80.65;97041.69;4966006;28;20078;-68
2021/06/06 04:08:34;;;;;;;12.60;7.50;;;;;;;13.30;80.77;97041.78;4964949;28;20129;-68
2021/06/06 04:11:00;;;;;;;12.07;7.45;;;;;;;13.61;80.09;97068.97;4964333;28;20042;-69
2021/06/06 04:13:26;;;;;;;8.88;6.53;;;;;;;13.71;79.68;97064.66;4964445;28;20042;-68
2021/06/06 04:15:52;;;;;;;16.55;7.03;;;;;;;13.87;79.70;97064.31;4965509;28;20038;-68
2021/06/06 04:18:25;;;;;;;8.95;6.20;;;;;;;14.03;79.54;97056.44;4964496;28;20616;-68
2021/06/06 04:20:52;;;;;;;10.25;6.63;;;;;;;13.80;79.27;96995.47;4964321;28;20051;-68
2021/06/06 04:23:19;;;;;;;8.75;5.85;;;;;;;14.25;79.51;97058.13;4964838;28;20418;-69
2021/06/06 04:25:44;;;;;;;5.70;5.10;;;;;;;14.24;78.60;97031.44;4965819;28;20054;-69
2021/06/06 04:28:10;;;;;;;8.20;5.32;;;;;;;14.54;78.05;97059.81;4966087;28;20031;-70
2021/06/06 04:30:36;;;;;;;9.07;5.95;;;;;;;14.05;77.38;96964.94;4964259;28;20030;-68
2021/06/06 04:33:07;;;;;;;13.02;5.63;;;;;;;14.87;76.08;97051.09;4966453;28;20042;-69
2021/06/06 04:35:38;;;;;;;8.45;6.03;;;;;;;14.35;75.59;97001.66;4965973;28;20488;-70
2021/06/06 04:38:05;;;;;;;10.80;6.18;;;;;;;13.96;75.04;96900.47;4964332;28;20058;-69
2021/06/06 04:40:31;;;;;;;8.10;6.38;;;;;;;15.16;74.67;97069.41;4963675;28;20043;-69
2021/06/06 04:42:56;;;;;;;9.25;6.30;;;;;;;14.49;73.31;96945.91;4964528;28;20391;-70
2021/06/06 04:45:22;;;;;;;7.70;6.80;;;;;;;15.43;73.65;97045.47;4963476;28;20066;-69
2021/06/06 04:47:47;;;;;;;9.27;7.05;;;;;;;15.68;72.83;97062.97;4965792;28;20465;-69
2021/06/06 04:50:15;;;;;;;13.48;7.57;;;;;;;15.81;71.97;97072.50;4963137;28;20490;-68
2021/06/06 04:52:42;;;;;;;8.95;7.10;;;;;;;15.81;70.61;97022.22;4965085;28;20035;-67
2021/06/06 04:55:12;;;;;;;12.48;7.70;;;;;;;16.19;69.41;97065.97;4965162;28;20031;-68
2021/06/06 04:57:38;;;;;;;12.77;7.53;;;;;;;16.39;69.14;97069.88;4963818;28;20113;-69
2021/06/06 05:00:07;;;;;;;9.65;7.00;;;;;;;15.78;69.52;96978.34;4965597;28;20257;-69
2021/06/06 05:02:32;;;;;;;16.33;7.95;;;;;;;16.67;68.23;97051.34;4960562;28;20031;-68
2021/06/06 05:04:58;;;;;;;12.68;7.72;;;;;;;16.53;70.49;97058.63;4944299;29;20530;-69
2021/06/06 05:07:23;;;;;;;17.67;8.82;;;;;;;16.39;69.92;97007.56;4945784;28;20054;-69
2021/06/06 05:09:49;;;;;;;8.20;6.85;;;;;;;16.63;69.18;96990.66;4945854;28;20046;-69
2021/06/06 05:12:15;;;;;;;8.38;7.15;;;;;;;16.85;67.75;96996.84;4945393;28;20046;-69
2021/06/06 05:14:40;;;;;;;24.52;12.40;;;;;;;15.84;68.17;96853.81;4944028;29;20031;-68
2021/06/06 05:17:06;;;;;;;10.52;7.22;;;;;;;17.47;68.82;97049.91;4944101;28;20579;-69
2021/06/06 05:19:32;;;;;;;7.57;6.75;;;;;;;17.64;68.10;97027.31;4945423;28;20047;-69
2021/06/06 05:21:57;;;;;;;11.10;7.40;;;;;;;17.46;68.10;96992.31;4944018;28;20142;-69
2021/06/06 05:24:23;;;;;;;9.88;6.60;;;;;;;17.93;67.68;97055.81;4945817;28;20073;-69
2021/06/06 05:26:48;;;;;;;8.35;7.10;;;;;;;17.91;68.06;97047.84;4945493;28;20592;-68
2021/06/06 05:29:14;;;;;;;6.38;5.78;;;;;;;18.04;67.62;97050.88;4945993;28;20036;-68
2021/06/06 05:31:39;;;;;;;7.95;6.50;;;;;;;18.21;67.02;97044.25;4945467;28;20478;-69
2021/06/06 05:34:05;;;;;;;7.00;6.35;;;;;;;17.77;64.69;96935.13;4945714;28;20063;-69
2021/06/06 05:36:30;;;;;;;7.75;6.13;;;;;;;18.34;64.34;97013.63;4945336;28;20549;-69
2021/06/06 05:38:56;;;;;;;7.55;5.82;;;;;;;17.52;63.65;96850.59;4946007;28;20031;-68
2021/06/06 05:41:21;;;;;;;8.52;6.57;;;;;;;19.03;61.96;97053.16;4945600;28;20031;-68
2021/06/06 05:43:47;;;;;;;6.13;5.63;;;;;;;19.14;60.51;97054.53;4945928;28;20035;-68
2021/06/06 05:46:17;;;;;;;6.18;5.57;;;;;;;19.34;57.40;97069.50;4945078;28;20039;-67
2021/06/06 05:48:43;;;;;;;6.65;5.47;;;;;;;19.46;56.65;97029.56;4945069;28;20035;-68
2021/06/06 05:51:09;;;;;;;8.00;6.07;;;;;;;19.41;55.19;97026.44;4943440;29;20153;-66
2021/06/06 05:53:35;;;;;;;6.95;5.45;;;;;;;19.79;54.82;97035.38;4943792;28;20526;-68
2021/06/06 05:56:00;;;;;;;7.00;5.60;;;;;;;20.02;54.46;97053.00;4943842;29;20133;-67
2021/06/06 05:58:26;;;;;;;5.70;5.20;;;;;;;19.85;54.17;97008.34;4945321;28;20027;-67
2021/06/06 06:00:52;;;;;;;5.22;4.82;;;;;;;20.42;52.21;97045.38;4943190;28;20074;-67
2021/06/06 06:03:18;;;;;;;6.20;5.55;;;;;;;20.15;51.69;96992.09;4955129;28;20062;-67
2021/06/06 06:05:44;;;;;;;65.63;28.38;;;;;;;20.36;53.23;97050.69;4962652;28;20626;-68
2021/06/06 06:08:22;;;;;;;30.58;15.43;;;;;;;20.62;53.31;97048.94;4962960;28;20027;-67
2021/06/06 06:10:49;;;;;;;6.70;5.65;;;;;;;20.91;51.69;97049.88;4964179;28;20046;-68
2021/06/06 06:13:18;;;;;;;15.73;7.72;;;;;;;20.99;49.81;97040.06;4964935;28;20366;-68
2021/06/06 06:15:43;;;;;;;8.55;6.13;;;;;;;21.04;48.94;97039.50;4966565;28;20054;-64
2021/06/06 06:18:10;;;;;;;12.52;7.78;;;;;;;20.61;49.67;97007.94;4966662;28;20043;-69
2021/06/06 06:20:36;;;;;;;6.30;5.70;;;;;;;20.64;49.94;96928.25;4967682;28;20059;-67
2021/06/06 06:23:02;;;;;;;5.72;5.22;;;;;;;21.08;49.02;96957.75;4968716;28;20038;-66
2021/06/06 06:25:28;;;;;;;8.15;5.82;;;;;;;21.79;49.55;97036.41;4966121;28;20528;-66
2021/06/06 06:27:53;;;;;;;7.90;6.50;;;;;;;21.30;48.72;96908.84;4968214;28;20043;-65
2021/06/06 06:30:26;;;;;;;6.43;5.65;;;;;;;21.83;47.84;96987.13;4968189;28;20417;-65
2021/06/06 06:32:52;;;;;;;6.80;6.18;;;;;;;22.19;48.72;97013.09;4966760;28;20146;-64
2021/06/06 06:35:18;;;;;;;6.65;5.88;;;;;;;22.48;47.94;97037.69;4967785;28;20538;-65
2021/06/06 06:37:43;;;;;;;5.90;5.38;;;;;;;22.73;48.25;97021.56;4968082;28;20035;-65
2021/06/06 06:40:11;;;;;;;5.65;5.18;;;;;;;23.00;47.47;97035.28;4965481;28;20042;-66
2021/06/06 06:42:37;;;;;;;8.93;5.50;;;;;;;22.42;47.11;96928.13;4968253;28;20219;-65
2021/06/06 06:45:05;;;;;;;8.50;5.70;;;;;;;22.94;48.89;97005.97;4966374;28;20492;-65
2021/06/06 06:47:30;;;;;;;11.27;7.03;;;;;;;22.80;48.53;97031.84;4967973;28;20134;-65
2021/06/06 06:49:56;;;;;;;9.25;8.32;;;;;;;22.79;49.13;97021.81;4968108;28;20051;-66
2021/06/06 06:52:22;;;;;;;8.15;6.57;;;;;;;23.00;48.72;97021.16;4967510;28;20429;-65
2021/06/06 06:54:47;;;;;;;7.20;5.72;;;;;;;23.20;48.53;97016.03;4966048;28;20195;-65
2021/06/06 06:57:13;;;;;;;9.23;6.25;;;;;;;23.12;48.70;97009.03;4967552;28;20027;-65
2021/06/06 06:59:38;;;;;;;9.10;6.35;;;;;;;23.23;48.74;97009.47;4967649;28;20510;-66
2021/06/06 07:02:05;;;;;;;6.70;6.20;;;;;;;23.59;48.42;97012.72;4967436;28;20186;-65
2021/06/06 07:04:31;;;;;;;9.32;8.43;;;;;;;23.50;49.52;97001.31;4967374;28;20046;-66
2021/06/06 07:06:57;;;;;;;10.82;9.00;;;;;;;23.52;48.90;96993.16;4965863;28;20413;-65
2021/06/06 07:09:24;;;;;;;6.20;5.70;;;;;;;23.61;48.82;96991.22;4967580;28;20608;-64
2021/06/06 07:11:50;;;;;;;8.20;7.00;;;;;;;23.33;48.80;96946.94;4967024;28;20027;-65
2021/06/06 07:14:16;;;;;;;8.65;6.20;;;;;;;23.13;49.91;96988.00;4965481;28;20517;-65
2021/06/06 07:16:41;;;;;;;6.65;5.95;;;;;;;23.04;50.18;96971.75;4965092;28;20054;-66
2021/06/06 07:19:07;;;;;;;10.52;6.90;;;;;;;23.17;51.34;97000.00;4967314;28;20501;-66
2021/06/06 07:21:34;;;;;;;13.13;8.07;;;;;;;22.70;49.95;96883.31;4965175;28;20646;-65
2021/06/06 07:23:59;;;;;;;12.80;7.13;;;;;;;22.48;51.27;96957.38;4964880;28;20035;-64
2021/06/06 07:26:33;;;;;;;12.90;6.75;;;;;;;22.86;52.52;96974.34;4967508;28;20031;-66
2021/06/06 07:29:00;;;;;;;9.32;6.60;;;;;;;23.31;50.80;96985.41;4965568;28;20038;-66
2021/06/06 07:31:27;;;;;;;12.35;6.68;;;;;;;23.05;49.74;96930.13;4966289;28;20038;-66
2021/06/06 07:33:52;;;;;;;6.68;6.05;;;;;;;22.82;52.11;96978.53;4964862;28;20149;-66
2021/06/06 07:36:20;;;;;;;9.98;7.03;;;;;;;23.14;51.06;96983.94;4964894;28;20093;-66
2021/06/06 07:38:48;;;;;;;7.88;7.07;;;;;;;22.74;49.94;96835.97;4965307;28;20543;-66
2021/06/06 07:41:14;;;;;;;11.93;7.00;;;;;;;23.58;48.99;96958.16;4964900;28;20129;-67
2021/06/06 07:43:40;;;;;;;6.70;6.18;;;;;;;23.55;49.38;96975.28;4966510;28;20085;-68
2021/06/06 07:46:06;;;;;;;14.73;7.05;;;;;;;23.59;48.51;96930.69;4964906;28;20552;-67
2021/06/06 07:48:32;;;;;;;9.63;8.63;;;;;;;24.31;48.75;96970.84;4965107;28;20509;-67
2021/06/06 07:50:58;;;;;;;8.45;7.60;;;;;;;24.69;46.10;96979.91;4966073;28;20121;-67
2021/06/06 07:53:24;;;;;;;7.25;6.00;;;;;;;24.31;46.52;96976.50;4966503;28;20117;-68
2021/06/06 07:55:52;;;;;;;9.32;6.65;;;;;;;24.27;45.33;96973.03;4964336;28;20042;-69
2021/06/06 07:58:24;;;;;;;5.93;5.32;;;;;;;24.40;43.23;96928.44;4964894;28;20062;-68
2021/06/06 08:00:50;;;;;;;6.00;5.45;;;;;;;25.08;38.91;96998.19;4965820;28;20035;-67
2021/06/06 08:03:16;;;;;;;5.43;5.03;;;;;;;25.14;38.09;96988.59;4964950;28;20034;-66
2021/06/06 08:05:43;;;;;;;5.65;5.32;;;;;;;25.23;38.39;96996.34;4965645;28;20117;-66
2021/06/06 08:08:11;;;;;;;5.97;5.50;;;;;;;25.31;37.86;96998.41;4964558;28;20075;-66
2021/06/06 08:10:39;;;;;;;6.30;5.80;;;;;;;25.40;37.82;96994.06;4964273;28;20956;-66
2021/06/06 08:13:05;;;;;;;5.93;5.53;;;;;;;25.32;37.89;96968.78;4965703;28;20120;-67
2021/06/06 08:15:31;;;;;;;6.20;5.80;;;;;;;25.53;38.23;96997.56;4965367;28;20041;-67
2021/06/06 08:18:01;;;;;;;6.47;5.97;;;;;;;25.59;37.51;96992.84;4965816;28;20037;-67
2021/06/06 08:20:31;;;;;;;6.50;6.00;;;;;;;25.65;37.57;97005.13;4964495;28;20133;-67
2021/06/06 08:22:57;;;;;;;6.45;5.78;;;;;;;25.48;37.53;97001.00;4966899;28;20531;-67
2021/06/06 08:25:23;;;;;;;6.15;5.78;;;;;;;25.60;37.32;97002.91;4965353;28;20197;-65
2021/06/06 08:27:49;;;;;;;5.90;5.30;;;;;;;25.86;37.36;97005.00;4965384;28;20038;-66
2021/06/06 08:30:24;;;;;;;6.35;5.95;;;;;;;25.83;36.60;96988.13;4964740;28;20039;-65
2021/06/06 08:32:49;;;;;;;6.55;5.97;;;;;;;26.10;37.31;97003.13;4963866;28;20037;-67
2021/06/06 08:35:15;;;;;;;7.60;6.00;;;;;;;26.20;36.38;96990.53;4964572;28;20038;-67
2021/06/06 08:37:41;;;;;;;7.28;5.47;;;;;;;26.22;35.60;96987.19;4965966;28;20449;-67
2021/06/06 08:40:10;;;;;;;6.40;5.80;;;;;;;26.24;35.52;96984.69;4963763;28;20162;-67
2021/06/06 08:42:43;;;;;;;6.95;5.93;;;;;;;26.22;34.92;96987.19;4964074;28;20042;-66
2021/06/06 08:45:37;;;;;;;6.40;5.80;;;;;;;26.15;34.56;96981.84;4965218;28;20030;-66
2021/06/06 08:48:05;;;;;;;;;;;;;;;26.00;35.71;96975.22;4964445;28;20038;-66
2021/06/06 08:50:37;;;;;;;6.85;5.43;;;;;;;25.97;36.23;96979.75;4965263;28;19949;-67
2021/06/06 08:53:32;;;;;;;6.60;6.10;;;;;;;25.96;36.75;96974.56;4965364;28;20131;-65
2021/06/06 08:56:20;;;;;;;7.10;6.40;;;;;;;26.22;35.58;96970.97;4963477;28;20508;-67
2021/06/06 08:59:06;;;;;;;6.38;5.88;;;;;;;26.39;36.21;96974.22;4965579;28;20087;-66
2021/06/06 09:01:37;;;;;;;6.10;5.78;;;;;;;26.51;35.62;96976.88;4964669;28;20042;-66
2021/06/06 09:04:08;;;;;;;9.90;6.90;;;;;;;24.38;34.95;96681.75;4963176;28;20438;-66
2021/06/06 09:06:37;;;;;;;7.05;6.40;;;;;;;26.42;35.46;96967.59;4962567;28;20520;-66
2021/06/06 09:09:06;;;;;;;6.47;5.95;;;;;;;25.54;34.87;96831.75;4963181;28;20482;-68
2021/06/06 09:11:32;;;;;;;7.25;6.53;;;;;;;26.59;34.80;96965.97;4965023;28;20034;-68
2021/06/06 09:13:58;;;;;;;9.27;6.10;;;;;;;26.44;34.73;96945.97;4964475;28;20043;-67
2021/06/06 09:16:27;;;;;;;6.72;6.20;;;;;;;26.60;33.71;96950.50;4964568;28;20037;-66
2021/06/06 09:19:19;;;;;;;7.38;6.20;;;;;;;26.79;33.66;96962.63;4965341;28;20207;-68
2021/06/06 09:22:02;;;;;;;6.88;6.30;;;;;;;26.79;33.69;96951.25;4965862;28;20158;-68
2021/06/06 09:24:35;;;;;;;6.00;5.57;;;;;;;26.90;34.97;96951.53;4965032;28;20062;-68
2021/06/06 09:27:10;;;;;;;;;;;;;;;27.11;35.12;96945.56;4963631;28;20110;-67
2021/06/06 09:29:36;;;;;;;6.68;6.00;;;;;;;26.81;32.87;96881.25;4965019;28;19933;-68
2021/06/06 09:32:19;;;;;;;7.18;6.22;;;;;;;27.05;33.59;96913.34;4962810;28;20494;-67
2021/06/06 09:34:55;;;;;;;7.15;6.75;;;;;;;27.27;34.10;96935.88;4963208;28;20035;-67
2021/06/06 09:37:24;;;;;;;6.68;6.13;;;;;;;27.27;32.98;96930.19;4964806;28;20035;-68
2021/06/06 09:40:00;;;;;;;6.32;5.93;;;;;;;27.44;32.78;96929.25;4963348;28;20038;-67
2021/06/06 09:42:30;;;;;;;6.63;6.20;;;;;;;27.60;32.58;96908.91;4962862;28;20570;-67
2021/06/06 09:45:17;;;;;;;7.72;6.93;;;;;;;27.67;32.48;96891.47;4964593;28;20473;-69
2021/06/06 09:47:55;;;;;;;6.57;6.18;;;;;;;27.62;32.21;96909.22;4964203;28;20077;-68
2021/06/06 09:50:20;;;;;;;6.93;6.38;;;;;;;27.56;32.58;96901.84;4962426;28;20043;-67
2021/06/06 09:52:47;;;;;;;6.40;6.00;;;;;;;27.75;32.00;96918.28;4964950;28;20038;-66
2021/06/06 09:55:27;;;;;;;7.10;6.60;;;;;;;27.96;32.67;96914.31;4962874;28;20047;-66
2021/06/06 09:58:06;;;;;;;7.35;6.40;;;;;;;28.13;32.98;96906.91;4963055;28;20494;-66
2021/06/06 10:00:44;;;;;;;7.03;6.22;;;;;;;28.38;31.22;96913.25;4964339;28;20474;-67
2021/06/06 10:03:31;;;;;;;6.70;6.30;;;;;;;28.33;31.63;96909.03;4955576;28;20470;-66
2021/06/06 10:06:34;;;;;;;6.85;6.35;;;;;;;28.66;31.53;96906.78;4943241;28;20502;-66
2021/06/06 10:09:23;;;;;;;7.82;7.22;;;;;;;28.92;30.61;96904.09;4945702;28;20035;-66
2021/06/06 10:12:09;;;;;;;6.85;6.40;;;;;;;28.87;30.23;96896.22;4945839;28;20142;-66
2021/06/06 10:14:53;;;;;;;6.95;6.45;;;;;;;28.82;29.82;96888.38;4943905;29;20562;-66
2021/06/06 10:17:49;;;;;;;7.00;6.60;;;;;;;28.93;30.23;96889.34;4943608;29;20186;-67
2021/06/06 10:20:31;;;;;;;11.52;10.48;;;;;;;29.24;30.05;96903.06;4946909;28;20086;-67
2021/06/06 10:23:07;;;;;;;6.78;6.18;;;;;;;29.73;29.46;96900.09;4945384;28;20039;-68
2021/06/06 10:25:39;;;;;;;6.65;6.25;;;;;;;30.19;28.10;96894.38;4944871;28;20062;-68
2021/06/06 10:28:06;;;;;;;7.25;6.22;;;;;;;29.94;27.88;96875.91;4945663;28;20039;-67
2021/06/06 10:31:22;;;;;;;7.15;6.65;;;;;;;29.76;28.46;96881.94;4944562;28;20483;-68
2021/06/06 10:33:56;;;;;;;7.30;6.88;;;;;;;29.16;29.92;96879.06;4961071;28;20354;-66
2021/06/06 10:36:25;;;;;;;12.63;11.18;;;;;;;29.52;30.07;96884.22;4942961;28;20044;-67
2021/06/06 10:38:51;;;;;;;7.13;6.63;;;;;;;29.21;29.94;96852.69;4943035;28;20094;-67
2021/06/06 10:41:28;;;;;;;7.00;6.47;;;;;;;29.03;30.51;96875.72;4942738;28;20075;-66
2021/06/06 10:44:19;;;;;;;6.78;6.38;;;;;;;29.30;29.99;96875.38;4943397;28;20046;-66
2021/06/06 10:46:49;;;;;;;6.90;6.30;;;;;;;28.98;29.71;96825.09;4943127;29;20039;-67
2021/06/06 10:49:38;;;;;;;7.45;6.95;;;;;;;29.18;31.01;96847.97;4945038;28;20101;-67
2021/06/06 10:52:21;;;;;;;9.00;8.38;;;;;;;29.02;30.80;96817.13;4944832;28;20027;-67
2021/06/06 10:54:50;;;;;;;8.38;7.68;;;;;;;28.59;31.41;96864.44;4945006;28;20443;-67
2021/06/06 10:57:24;;;;;;;8.27;6.47;;;;;;;28.53;30.87;96866.44;4942764;29;20592;-66
2021/06/06 11:00:10;;;;;;;8.68;7.72;;;;;;;27.40;29.94;96567.31;4945868;28;20134;-68
2021/06/06 11:02:37;;;;;;;7.57;6.90;;;;;;;29.89;28.81;96868.09;4949854;28;20688;-66
2021/06/06 11:05:22;;;;;;;6.72;6.32;;;;;;;30.25;28.81;96856.00;4967269;28;20117;-67
2021/06/06 11:07:48;;;;;;;7.03;6.43;;;;;;;30.35;28.00;96759.41;4967342;28;20039;-68
2021/06/06 11:10:16;;;;;;;16.25;11.32;;;;;;;31.40;27.43;96851.66;4967000;28;20034;-66
2021/06/06 11:12:43;;;;;;;17.88;12.85;;;;;;;30.92;28.62;96860.97;4967056;28;20047;-67
2021/06/06 11:15:39;;;;;;;16.38;11.57;;;;;;;31.53;27.32;96854.84;4966609;28;21141;-67
2021/06/06 11:18:20;;;;;;;7.85;7.22;;;;;;;31.95;27.39;96849.00;4961617;28;20173;-68
2021/06/06 11:21:05;;;;;;;7.32;6.75;;;;;;;31.21;28.17;96701.63;4965054;28;20055;-73
2021/06/06 11:23:41;;;;;;;7.55;6.97;;;;;;;32.24;26.55;96834.22;4967086;28;20058;-65
2021/06/06 11:26:31;;;;;;;8.35;7.65;;;;;;;31.39;28.10;96838.63;4966297;28;20050;-66
2021/06/06 11:29:19;;;;;;;9.93;9.10;;;;;;;30.93;27.95;96842.53;4966836;28;20531;-66
2021/06/06 11:32:10;;;;;;;8.20;7.60;;;;;;;30.39;27.84;96723.56;4966664;28;20082;-69
2021/06/06 11:34:38;;;;;;;9.05;8.27;;;;;;;28.77;30.27;96760.78;4967031;28;20113;-67
2021/06/06 11:37:12;;;;;;;18.85;14.13;;;;;;;29.68;30.04;96843.69;4968846;28;20045;-73
2021/06/06 11:39:41;;;;;;;7.82;7.28;;;;;;;29.76;30.28;96806.91;4966415;28;20033;-67
2021/06/06 11:42:29;;;;;;;7.13;6.72;;;;;;;30.66;29.11;96794.47;4966463;28;20544;-68
2021/06/06 11:45:03;;;;;;;8.55;7.95;;;;;;;30.00;29.42;96833.91;4965993;28;20050;-67
2021/06/06 11:47:34;;;;;;;8.20;7.40;;;;;;;29.98;29.51;96830.78;4964933;28;20066;-68